createdAt,value
2022-11-28T00:01:23.306Z,0.63
2022-11-28T00:03:49.997Z,2.95
2022-11-28T00:06:18.062Z,0.77
2022-11-28T00:08:45.423Z,2.00
2022-11-28T00:11:14.074Z,0.70
2022-11-28T00:13:40.980Z,1.15
2022-11-28T00:16:09.215Z,1.00
2022-11-28T00:18:36.148Z,1.40
2022-11-28T00:21:05.909Z,0.90
2022-11-28T00:23:33.181Z,0.85
2022-11-28T00:26:01.665Z,1.60
2022-11-28T00:28:28.393Z,2.72
2022-11-28T00:30:55.059Z,1.30
2022-11-28T00:33:22.060Z,1.58
2022-11-28T00:35:48.979Z,1.02
2022-11-28T00:38:15.781Z,0.75
2022-11-28T00:40:42.559Z,1.95
2022-11-28T00:43:11.696Z,0.90
2022-11-28T00:45:38.425Z,0.40
2022-11-28T00:48:05.630Z,1.42
2022-11-28T00:50:32.343Z,0.90
2022-11-28T00:52:58.997Z,0.98
2022-11-28T00:55:25.655Z,0.90
2022-11-28T00:57:52.708Z,1.58
2022-11-28T01:00:19.894Z,0.95
2022-11-28T01:02:46.749Z,0.40
2022-11-28T01:05:13.658Z,0.95
2022-11-28T01:07:42.397Z,0.80
2022-11-28T01:10:11.727Z,1.75
2022-11-28T01:12:38.657Z,0.50
2022-11-28T01:15:07.326Z,1.48
2022-11-28T01:17:34.005Z,0.63
2022-11-28T01:20:00.672Z,0.40
2022-11-28T01:22:27.366Z,1.13
2022-11-28T01:24:54.037Z,0.70
2022-11-28T01:27:20.735Z,0.50
2022-11-28T01:29:47.731Z,0.68
2022-11-28T01:32:14.695Z,0.43
2022-11-28T01:34:41.606Z,0.47
2022-11-28T01:37:08.388Z,0.50
2022-11-28T01:39:35.148Z,0.93
2022-11-28T01:42:01.832Z,0.50
2022-11-28T01:44:28.905Z,0.63
2022-11-28T01:46:56.239Z,1.50
2022-11-28T01:49:27.146Z,1.33
2022-11-28T01:51:57.443Z,2.30
2022-11-28T01:54:25.793Z,0.35
2022-11-28T01:56:57.146Z,0.65
2022-11-28T01:59:27.456Z,0.85
2022-11-28T02:01:54.253Z,0.40
2022-11-28T02:04:20.996Z,1.48
2022-11-28T02:06:47.680Z,0.35
2022-11-28T02:09:15.920Z,0.40
2022-11-28T02:11:48.329Z,0.85
2022-11-28T02:14:36.791Z,0.38
2022-11-28T02:17:22.403Z,1.15
2022-11-28T02:20:07.209Z,0.52
2022-11-28T02:23:09.605Z,0.40
2022-11-28T02:25:39.361Z,1.45
2022-11-28T02:28:30.465Z,0.50
2022-11-28T02:31:22.236Z,0.65
2022-11-28T02:33:52.570Z,0.47
2022-11-28T02:36:20.286Z,1.25
2022-11-28T02:39:10.869Z,1.13
2022-11-28T02:41:48.261Z,1.42
2022-11-28T02:44:23.281Z,0.50
2022-11-28T02:47:00.351Z,0.93
2022-11-28T02:49:31.236Z,1.13
2022-11-28T02:52:04.675Z,0.52
2022-11-28T02:54:31.737Z,1.75
2022-11-28T02:56:58.427Z,0.88
2022-11-28T02:59:37.221Z,0.55
2022-11-28T03:02:29.069Z,1.27
2022-11-28T03:05:11.625Z,0.30
2022-11-28T03:07:47.416Z,0.52
2022-11-28T03:10:40.282Z,1.33
2022-11-28T03:13:19.310Z,0.40
2022-11-28T03:16:13.887Z,0.55
2022-11-28T03:19:04.724Z,0.87
2022-11-28T03:22:08.230Z,1.00
2022-11-28T03:24:40.666Z,1.13
2022-11-28T03:27:26.704Z,0.43
2022-11-28T03:29:56.060Z,0.73
2022-11-28T03:32:29.897Z,0.95
2022-11-28T03:35:00.864Z,0.38
2022-11-28T03:37:30.374Z,1.17
2022-11-28T03:40:03.648Z,0.57
2022-11-28T03:42:32.721Z,1.40
2022-11-28T03:45:17.889Z,0.82
2022-11-28T03:50:22.624Z,1.05
2022-11-28T03:52:59.330Z,0.70
2022-11-28T03:55:30.348Z,1.33
2022-11-28T03:58:09.899Z,3.08
2022-11-28T04:00:45.964Z,0.95
2022-11-28T04:03:27.066Z,0.60
2022-11-28T04:05:54.650Z,0.50
2022-11-28T04:08:31.911Z,1.48
2022-11-28T04:11:13.467Z,1.33
2022-11-28T04:14:10.147Z,0.70
2022-11-28T04:16:41.988Z,0.80
2022-11-28T04:19:23.766Z,2.53
2022-11-28T04:22:15.619Z,0.52
2022-11-28T04:24:47.120Z,1.38
2022-11-28T04:27:17.939Z,1.55
2022-11-28T04:29:47.782Z,3.47
2022-11-28T04:32:19.060Z,1.85
2022-11-28T04:34:50.345Z,1.27
2022-11-28T04:37:18.101Z,2.90
2022-11-28T04:39:47.277Z,1.25
2022-11-28T04:42:20.837Z,0.75
2022-11-28T04:44:56.569Z,0.90
2022-11-28T04:47:24.476Z,1.85
2022-11-28T04:49:53.387Z,2.10
2022-11-28T04:52:30.338Z,1.38
2022-11-28T04:55:10.491Z,1.25
2022-11-28T04:57:37.369Z,4.15
2022-11-28T05:00:17.295Z,0.80
2022-11-28T05:02:45.916Z,0.65
2022-11-28T05:05:24.874Z,2.28
2022-11-28T05:07:52.648Z,0.65
2022-11-28T05:10:19.544Z,0.70
2022-11-28T05:12:46.240Z,1.90
2022-11-28T05:15:13.219Z,0.80
2022-11-28T05:17:42.542Z,1.27
2022-11-28T05:20:09.885Z,0.98
2022-11-28T05:22:36.562Z,2.35
2022-11-28T05:25:03.278Z,3.80
2022-11-28T05:27:29.983Z,1.10
2022-11-28T05:29:56.824Z,1.40
2022-11-28T05:32:23.454Z,3.08
2022-11-28T05:34:50.132Z,2.05
2022-11-28T05:37:16.830Z,1.50
2022-11-28T05:39:43.704Z,2.55
2022-11-28T05:42:10.497Z,3.05
2022-11-28T05:44:37.414Z,0.88
2022-11-28T05:47:04.126Z,1.50
2022-11-28T05:49:30.830Z,1.95
2022-11-28T05:51:57.537Z,1.05
2022-11-28T05:54:24.245Z,1.13
2022-11-28T05:56:51.029Z,1.63
2022-11-28T05:59:17.671Z,3.17
2022-11-28T06:01:44.450Z,1.33
2022-11-28T06:04:11.263Z,1.33
2022-11-28T06:06:37.960Z,1.77
2022-11-28T06:09:06.294Z,1.13
2022-11-28T06:11:34.561Z,0.90
2022-11-28T06:14:02.933Z,2.70
2022-11-28T06:16:30.839Z,2.75
2022-11-28T06:19:03.485Z,1.75
2022-11-28T06:21:30.941Z,0.90
2022-11-28T06:23:58.987Z,1.85
2022-11-28T06:26:26.908Z,1.90
2022-11-28T06:28:55.406Z,2.38
2022-11-28T06:31:24.544Z,1.58
2022-11-28T06:33:51.586Z,1.50
2022-11-28T06:36:19.741Z,1.25
2022-11-28T06:38:46.896Z,1.90
2022-11-28T06:41:16.337Z,1.50
2022-11-28T06:43:43.048Z,2.38
2022-11-28T06:46:16.396Z,3.00
2022-11-28T06:48:44.341Z,4.03
2022-11-28T06:51:11.830Z,3.28
2022-11-28T06:53:38.602Z,2.80
2022-11-28T06:56:07.045Z,2.97
2022-11-28T06:58:33.980Z,1.10
2022-11-28T07:01:09.159Z,2.58
2022-11-28T07:03:36.133Z,2.25
2022-11-28T07:06:03.847Z,3.15
2022-11-28T07:08:31.349Z,2.28
2022-11-28T07:10:58.619Z,2.60
2022-11-28T07:13:25.906Z,2.10
2022-11-28T07:15:52.765Z,3.72
2022-11-28T07:18:19.455Z,2.28
2022-11-28T07:20:46.234Z,3.38
2022-11-28T07:23:12.927Z,3.67
2022-11-28T07:25:39.656Z,3.22
2022-11-28T07:28:06.561Z,3.67
2022-11-28T07:30:33.354Z,4.57
2022-11-28T07:33:00.545Z,5.28
2022-11-28T07:35:27.267Z,1.52
2022-11-28T07:37:54.010Z,4.65
2022-11-28T07:40:22.660Z,3.42
2022-11-28T07:42:49.378Z,2.97
2022-11-28T07:45:16.303Z,5.03
2022-11-28T07:47:43.191Z,3.15
2022-11-28T07:50:10.094Z,3.97
2022-11-28T07:52:36.859Z,4.10
2022-11-28T07:55:03.892Z,3.42
2022-11-28T07:57:30.752Z,2.42
2022-11-28T07:59:57.456Z,2.63
2022-11-28T08:02:24.248Z,2.35
2022-11-28T08:04:55.138Z,2.50
2022-11-28T08:07:37.570Z,2.35
2022-11-28T08:10:06.174Z,2.45
2022-11-28T08:12:32.869Z,3.58
2022-11-28T08:14:59.501Z,2.17
2022-11-28T08:17:27.249Z,2.65
2022-11-28T08:19:53.908Z,2.13
2022-11-28T08:22:20.561Z,3.30
2022-11-28T08:24:47.235Z,4.88
2022-11-28T08:27:13.930Z,4.10
2022-11-28T08:29:41.094Z,5.18
2022-11-28T08:32:08.075Z,3.20
2022-11-28T08:34:34.729Z,2.80
2022-11-28T08:37:01.666Z,3.40
2022-11-28T08:39:28.357Z,2.72
2022-11-28T08:41:59.502Z,4.32
2022-11-28T08:44:27.259Z,1.77
2022-11-28T08:46:54.599Z,2.30
2022-11-28T08:49:21.239Z,9.82
2022-11-28T08:51:47.939Z,4.07
2022-11-28T08:54:15.125Z,4.75
2022-11-28T08:56:41.989Z,9.50
2022-11-28T08:59:09.699Z,4.43
2022-11-28T09:01:36.461Z,2.17
2022-11-28T09:04:04.354Z,4.18
2022-11-28T09:06:31.225Z,3.17
2022-11-28T09:08:58.027Z,4.38
2022-11-28T09:11:25.137Z,1.92
2022-11-28T09:13:51.766Z,2.00
2022-11-28T09:16:19.094Z,2.42
2022-11-28T09:18:45.938Z,4.07
2022-11-28T09:21:14.342Z,6.15
2022-11-28T09:23:43.055Z,1.65
2022-11-28T09:26:18.032Z,6.63
2022-11-28T09:28:45.411Z,5.53
2022-11-28T09:31:12.949Z,2.35
2022-11-28T09:33:39.737Z,2.15
2022-11-28T09:36:08.629Z,2.60
2022-11-28T09:38:36.062Z,5.00
2022-11-28T09:41:06.180Z,3.70
2022-11-28T09:43:40.630Z,3.75
2022-11-28T09:46:12.767Z,2.50
2022-11-28T09:48:50.986Z,3.58
2022-11-28T09:51:29.499Z,2.22
2022-11-28T09:54:15.927Z,3.53
2022-11-28T09:56:44.389Z,2.97
2022-11-28T09:59:27.505Z,2.78
2022-11-28T10:02:15.418Z,3.70
2022-11-28T10:04:57.837Z,3.03
2022-11-28T10:07:34.332Z,2.80
2022-11-28T10:10:19.167Z,5.32
2022-11-28T10:13:03.589Z,4.68
2022-11-28T10:15:48.797Z,5.55
2022-11-28T10:20:45.763Z,2.97
2022-11-28T10:23:21.414Z,5.05
2022-11-28T10:25:54.500Z,3.97
2022-11-28T10:28:28.842Z,2.00
2022-11-28T10:31:28.463Z,1.92
2022-11-28T10:34:20.569Z,5.75
2022-11-28T10:37:08.244Z,2.40
2022-11-28T10:39:37.097Z,2.20
2022-11-28T10:42:13.704Z,4.28
2022-11-28T10:44:55.516Z,3.83
2022-11-28T10:47:32.072Z,2.97
2022-11-28T10:50:01.480Z,3.40
2022-11-28T10:52:50.602Z,3.35
2022-11-28T10:55:38.881Z,3.72
2022-11-28T10:58:24.021Z,4.57
2022-11-28T11:03:27.473Z,3.83
2022-11-28T11:05:54.197Z,4.85
2022-11-28T11:08:26.341Z,3.35
2022-11-28T11:11:33.199Z,3.25
2022-11-28T11:14:05.533Z,4.32
2022-11-28T11:16:56.343Z,2.67
2022-11-28T11:19:36.194Z,2.67
2022-11-28T11:22:19.230Z,2.67
2022-11-28T11:25:15.476Z,4.00
2022-11-28T11:27:52.633Z,4.35
2022-11-28T11:30:30.944Z,4.45
2022-11-28T11:32:59.532Z,4.05
2022-11-28T11:35:37.394Z,2.92
2022-11-28T11:38:22.685Z,4.75
2022-11-28T11:43:36.741Z,3.67
2022-11-28T11:46:10.600Z,3.70
2022-11-28T11:48:46.853Z,3.80
2022-11-28T11:51:31.026Z,7.63
2022-11-28T11:54:12.823Z,5.10
2022-11-28T11:56:43.324Z,5.63
2022-11-28T11:59:44.542Z,2.60
2022-11-28T12:02:38.348Z,2.58
2022-11-28T12:05:18.953Z,4.03
2022-11-28T12:08:00.136Z,3.30
2022-11-28T12:10:30.461Z,4.82
2022-11-28T12:12:57.417Z,9.85
2022-11-28T12:15:30.101Z,7.00
2022-11-28T12:18:24.098Z,7.22
2022-11-28T12:21:13.718Z,6.50
2022-11-28T12:23:52.168Z,5.47
2022-11-28T12:26:39.835Z,4.32
2022-11-28T12:29:33.809Z,3.80
2022-11-28T12:32:38.242Z,4.93
2022-11-28T12:35:33.108Z,5.65
2022-11-28T12:38:32.444Z,4.95
2022-11-28T12:41:05.985Z,4.05
2022-11-28T12:44:01.972Z,7.75
2022-11-28T12:46:45.142Z,2.75
2022-11-28T12:49:19.108Z,2.20
2022-11-28T12:52:23.479Z,3.50
2022-11-28T12:55:04.790Z,4.97
2022-11-28T12:57:43.032Z,5.90
2022-11-28T13:00:14.910Z,5.85
2022-11-28T13:02:47.781Z,3.58
2022-11-28T13:05:24.441Z,1.73
2022-11-28T13:08:06.108Z,3.60
2022-11-28T13:10:45.533Z,3.38
2022-11-28T13:13:34.857Z,4.10
2022-11-28T13:16:44.402Z,3.83
2022-11-28T13:19:48.290Z,4.97
2022-11-28T13:22:23.680Z,3.90
2022-11-28T13:25:00.818Z,2.80
2022-11-28T13:27:44.791Z,3.17
2022-11-28T13:30:28.924Z,3.80
2022-11-28T13:33:07.431Z,2.45
2022-11-28T13:35:34.450Z,2.53
2022-11-28T13:42:00.940Z,2.72
2022-11-28T13:44:20.839Z,4.38
2022-11-28T13:46:47.811Z,2.35
2022-11-28T13:49:24.697Z,4.13
2022-11-28T13:52:19.353Z,3.40
2022-11-28T13:54:53.544Z,3.53
2022-11-28T13:57:25.403Z,4.28
2022-11-28T14:00:18.526Z,4.25
2022-11-28T14:02:48.774Z,3.58
2022-11-28T14:05:31.980Z,3.25
2022-11-28T14:07:59.026Z,2.70
2022-11-28T14:10:28.855Z,6.93
2022-11-28T14:13:06.571Z,4.80
2022-11-28T14:15:58.665Z,3.42
2022-11-28T14:18:58.828Z,5.30
2022-11-28T14:22:00.935Z,2.88
2022-11-28T14:24:40.260Z,3.22
2022-11-28T14:27:07.217Z,3.75
2022-11-28T14:29:39.896Z,5.40
2022-11-28T14:32:28.840Z,5.32
2022-11-28T14:34:53.453Z,3.58
2022-11-28T14:37:20.485Z,6.47
2022-11-28T14:39:50.960Z,5.50
2022-11-28T14:42:43.953Z,4.07
2022-11-28T14:45:30.135Z,3.35
2022-11-28T14:48:27.182Z,2.90
2022-11-28T14:51:00.997Z,4.65
2022-11-28T14:56:11.434Z,3.10
2022-11-28T14:58:38.443Z,3.20
2022-11-28T15:01:10.322Z,4.95
2022-11-28T15:03:39.132Z,5.03
2022-11-28T15:06:22.105Z,7.32
2022-11-28T15:09:16.713Z,2.88
2022-11-28T15:12:25.779Z,7.20
2022-11-28T15:14:56.173Z,5.68
2022-11-28T15:17:28.386Z,7.80
2022-11-28T15:19:55.901Z,7.95
2022-11-28T15:22:38.639Z,5.32
2022-11-28T15:25:23.062Z,5.28
2022-11-28T15:27:49.865Z,5.13
2022-11-28T15:30:19.398Z,6.30
2022-11-28T15:32:46.591Z,4.18
2022-11-28T15:35:15.524Z,5.05
2022-11-28T15:37:54.696Z,4.18
2022-11-28T15:40:25.855Z,4.40
2022-11-28T15:42:52.702Z,3.78
2022-11-28T15:45:35.263Z,4.78
2022-11-28T15:48:02.293Z,4.70
2022-11-28T15:50:31.141Z,5.20
2022-11-28T15:53:14.956Z,5.18
2022-11-28T15:55:41.656Z,3.83
2022-11-28T15:58:21.155Z,5.60
2022-11-28T16:00:53.915Z,5.30
2022-11-28T16:03:25.241Z,3.50
2022-11-28T16:05:53.309Z,5.93
2022-11-28T16:08:28.482Z,5.30
2022-11-28T16:10:55.692Z,7.95
2022-11-28T16:13:24.770Z,5.75
2022-11-28T16:15:55.621Z,4.82
2022-11-28T16:18:22.413Z,6.72
2022-11-28T16:20:49.176Z,6.25
2022-11-28T16:23:30.700Z,5.13
2022-11-28T16:26:03.175Z,5.88
2022-11-28T16:28:38.624Z,3.97
2022-11-28T16:31:12.841Z,5.70
2022-11-28T16:33:42.272Z,4.03
2022-11-28T16:36:24.236Z,3.83
2022-11-28T16:38:53.661Z,3.90
2022-11-28T16:41:25.558Z,5.85
2022-11-28T16:43:59.056Z,3.75
2022-11-28T16:46:32.272Z,6.38
2022-11-28T16:48:59.799Z,5.30
2022-11-28T16:51:26.462Z,3.88
2022-11-28T16:53:55.481Z,2.75
2022-11-28T16:56:31.691Z,4.05
2022-11-28T16:59:03.038Z,5.45
2022-11-28T17:01:30.814Z,3.33
2022-11-28T17:03:57.852Z,55.55
2022-11-28T17:06:36.891Z,47.70
2022-11-28T17:09:09.285Z,25.63
2022-11-28T17:11:38.671Z,9.90
2022-11-28T17:14:11.738Z,8.27
2022-11-28T17:19:07.899Z,3.70
2022-11-28T17:22:04.703Z,5.38
2022-11-28T17:24:35.280Z,5.20
2022-11-28T17:27:02.683Z,9.77
2022-11-28T17:29:29.479Z,6.70
2022-11-28T17:31:58.757Z,7.88
2022-11-28T17:34:27.579Z,5.43
2022-11-28T17:36:54.507Z,3.65
2022-11-28T17:39:21.396Z,5.45
2022-11-28T17:41:48.576Z,5.95
2022-11-28T17:44:22.431Z,5.60
2022-11-28T17:46:50.654Z,5.27
2022-11-28T17:49:17.583Z,5.25
2022-11-28T17:51:44.367Z,3.80
2022-11-28T17:54:13.963Z,3.25
2022-11-28T17:56:40.633Z,3.53
2022-11-28T17:59:07.292Z,2.78
2022-11-28T18:01:33.979Z,2.42
2022-11-28T18:04:00.664Z,2.15
2022-11-28T18:06:27.361Z,3.10
2022-11-28T18:08:54.026Z,2.20
2022-11-28T18:11:21.168Z,2.40
2022-11-28T18:13:47.907Z,2.83
2022-11-28T18:16:17.687Z,3.40
2022-11-28T18:18:44.779Z,4.03
2022-11-28T18:21:11.829Z,5.05
2022-11-28T18:23:40.245Z,2.42
2022-11-28T18:26:12.177Z,3.40
2022-11-28T18:28:39.320Z,6.35
2022-11-28T18:31:16.630Z,2.63
2022-11-28T18:33:43.443Z,1.67
2022-11-28T18:36:15.136Z,6.47
2022-11-28T18:38:44.645Z,11.55
2022-11-28T18:41:11.979Z,17.77
2022-11-28T18:43:39.029Z,22.95
2022-11-28T18:46:10.826Z,10.88
2022-11-28T18:48:39.011Z,11.70
2022-11-28T18:51:20.759Z,8.23
2022-11-28T18:53:48.293Z,7.90
2022-11-28T18:56:15.215Z,7.55
2022-11-28T18:58:46.584Z,4.20
2022-11-28T19:01:14.546Z,4.95
2022-11-28T19:03:41.856Z,5.65
2022-11-28T19:06:10.635Z,4.10
2022-11-28T19:08:38.733Z,19.55
2022-11-28T19:11:09.530Z,11.35
2022-11-28T19:13:37.203Z,10.38
2022-11-28T19:16:27.304Z,6.80
2022-11-28T19:18:54.213Z,7.90
2022-11-28T19:21:23.369Z,7.63
2022-11-28T19:23:50.705Z,5.68
2022-11-28T19:26:19.750Z,7.65
2022-11-28T19:28:46.897Z,4.88
2022-11-28T19:31:21.974Z,5.95
2022-11-28T19:34:02.127Z,5.85
2022-11-28T19:36:39.378Z,4.75
2022-11-28T19:39:17.065Z,7.88
2022-11-28T19:41:44.457Z,8.25
2022-11-28T19:44:11.729Z,7.45
2022-11-28T19:46:38.537Z,9.93
2022-11-28T19:49:06.332Z,7.07
2022-11-28T19:51:34.205Z,7.15
2022-11-28T19:54:03.521Z,8.50
2022-11-28T19:56:31.393Z,8.85
2022-11-28T19:58:58.826Z,9.27
2022-11-28T20:01:25.896Z,7.28
2022-11-28T20:03:53.153Z,6.32
2022-11-28T20:06:22.068Z,6.40
2022-11-28T20:08:50.385Z,5.57
2022-11-28T20:11:22.728Z,5.18
2022-11-28T20:13:50.293Z,5.03
2022-11-28T20:16:18.085Z,5.50
2022-11-28T20:18:45.374Z,6.75
2022-11-28T20:21:14.872Z,6.07
2022-11-28T20:23:43.670Z,5.60
2022-11-28T20:26:11.679Z,5.93
2022-11-28T20:28:39.839Z,4.65
2022-11-28T20:31:07.900Z,6.75
2022-11-28T20:33:34.637Z,6.55
2022-11-28T20:36:06.721Z,4.85
2022-11-28T20:38:33.422Z,8.05
2022-11-28T20:41:04.491Z,8.15
2022-11-28T20:43:32.529Z,7.70
2022-11-28T20:46:10.720Z,8.45
2022-11-28T20:48:38.126Z,8.80
2022-11-28T20:51:09.776Z,8.07
2022-11-28T20:53:39.224Z,7.00
2022-11-28T20:56:08.235Z,6.10
2022-11-28T20:58:35.001Z,9.32
2022-11-28T21:01:01.723Z,11.00
2022-11-28T21:03:28.557Z,128.32
2022-11-28T21:06:00.707Z,176.50
2022-11-28T21:08:30.384Z,35.83
2022-11-28T21:10:57.540Z,42.70
2022-11-28T21:13:24.680Z,16.17
2022-11-28T21:15:53.354Z,9.63
2022-11-28T21:18:20.149Z,11.55
2022-11-28T21:20:47.090Z,9.68
2022-11-28T21:23:15.100Z,9.57
2022-11-28T21:25:43.243Z,12.10
2022-11-28T21:28:10.418Z,7.20
2022-11-28T21:30:42.784Z,9.38
2022-11-28T21:33:10.984Z,6.55
2022-11-28T21:35:38.519Z,5.80
2022-11-28T21:38:05.882Z,6.03
2022-11-28T21:40:33.180Z,7.05
2022-11-28T21:42:59.894Z,6.53
2022-11-28T21:45:26.744Z,6.07
2022-11-28T21:47:53.489Z,7.18
2022-11-28T21:50:20.161Z,7.22
2022-11-28T21:52:47.242Z,15.95
2022-11-28T21:55:13.982Z,78.57
2022-11-28T21:57:42.174Z,34.35
2022-11-28T22:00:20.791Z,10.15
2022-11-28T22:03:02.929Z,60.38
2022-11-28T22:05:43.284Z,28.08
2022-11-28T22:08:10.715Z,36.00
2022-11-28T22:10:37.949Z,15.15
2022-11-28T22:13:04.665Z,29.95
2022-11-28T22:15:31.342Z,15.90
2022-11-28T22:17:58.002Z,13.70
2022-11-28T22:20:25.172Z,12.40
2022-11-28T22:22:51.863Z,11.27
2022-11-28T22:25:18.520Z,9.30
2022-11-28T22:27:45.201Z,9.88
2022-11-28T22:30:12.089Z,9.27
2022-11-28T22:32:38.857Z,9.07
2022-11-28T22:35:09.074Z,13.77
2022-11-28T22:37:36.402Z,9.65
2022-11-28T22:40:03.774Z,9.68
2022-11-28T22:42:30.499Z,6.85
2022-11-28T22:44:57.131Z,9.93
2022-11-28T22:47:23.768Z,6.85
2022-11-28T22:49:50.497Z,6.80
2022-11-28T22:52:17.270Z,5.38
2022-11-28T22:54:44.131Z,4.78
2022-11-28T22:57:11.104Z,4.00
2022-11-28T22:59:38.598Z,3.35
2022-11-28T23:02:05.512Z,2.60
2022-11-28T23:04:32.640Z,2.63
2022-11-28T23:06:59.472Z,2.10
2022-11-28T23:09:26.191Z,1.65
2022-11-28T23:11:53.003Z,1.80
2022-11-28T23:14:20.041Z,1.45
2022-11-28T23:16:46.919Z,1.13
2022-11-28T23:19:16.426Z,1.02
2022-11-28T23:21:44.877Z,0.77
2022-11-28T23:24:14.244Z,0.68
2022-11-28T23:26:41.080Z,0.80
2022-11-28T23:29:07.852Z,1.85
2022-11-28T23:31:36.900Z,0.77
2022-11-28T23:34:04.236Z,0.70
2022-11-28T23:36:35.678Z,0.50
2022-11-28T23:39:07.792Z,0.57
2022-11-28T23:41:34.460Z,1.13
2022-11-28T23:44:01.198Z,0.82
2022-11-28T23:46:28.661Z,0.70
2022-11-28T23:48:55.934Z,2.72
2022-11-28T23:51:24.206Z,0.55
2022-11-28T23:53:51.477Z,1.05
2022-11-28T23:56:23.639Z,0.60
2022-11-28T23:58:50.955Z,1.20
